Kuito, Kuito Airport (FNKU)

NameKuito Airport
CityKuito
CountryAngola
ICAOFNKU
IATASVP
Altitude1712 m
CoordinatesGoogle Map
Live Air TrafficLiveATC.net
METARFNKU 221000Z 12006KT CAVOK 19/13 Q1025
2019-06-22 10:00:00 Wind: East-Southeast (120°) 3.09 m/s - Visibility: > 10000 m - Weather: CAVOK - Temperature: 19 °C - Dew point: 13 °C - Humidity: 68.3% - Pressure: 1025 hPa
Statistics

The table below shows the detailed information of all flights to/from Kuito, Kuito Airport (FNKU).